KOPN

Details ICAO KOPN
Name THOMASTON UPSON CO
Region United States
Timezone America/New_York (UTC-5.0)
Plans Departing 4
Arriving 1
Stats Elevation 798 ft / 243 m (AMSL)
Location 32.955003° -84.264117°
Runways 1
Magnetic Variation 5.113° W
Sunrise 2017-12-18 12:35:48 UTC / 2017-12-18 07:35:48 Local
Sunset 2017-12-18 22:34:28 UTC / 2017-12-18 17:34:28 Local
Advertisement - Login to hide

Runways

ID Width Length Bearing (true) Bearing (mag) Surface Threshold Offset Overrun Length
12 100 ft / 30 m 6,347 ft / 1,935 m 119.54° 124.65° Asphalt 650 ft / 198 m 0 ft / 0 m
30 100 ft / 30 m 6,347 ft / 1,935 m 299.55° 304.66° Asphalt 0 ft / 0 m 0 ft / 0 m

Approach Navaids

Runway Type Ident Frequency Range Bearing (true) Bearing (mag) Slope Elevation
30 Localiser IOPN 109.75 MHz 18 nm / 33 km 299.58° 304.69° - 798 ft / 243 m (AMSL)
30 Glidescope IOPN 109.75 MHz 10 nm / 19 km 299.55° 304.66° 3.00° 790 ft / 241 m (AMSL)
30 DME IOPN 109.75 MHz 18 nm / 33 km - - - 796 ft / 243 m (AMSL)

Map

Weather


0- 5 10 15 20 25 30 35+ Temperature / ° C

Clouds and Precipitation
Forecast for 2017-12-19 00:00 UTC. Updated an hour ago

Ground ~20,000 ft ~40,000 ft Winds

METAR

KOPN 182215Z AUTO 26005KT 10SM CLR 17/08 A3019 RMK AO2

TAF

Not found

Frequencies

Recorded 133.97 MHz AWOS 3
Approach 119.60 MHz ATLANTA APP/DEP
Unicom 122.80 MHz CTAF/UNICOM
Approach 124.20 MHz ATLANTA APP/DEP
Warning: Do not use this data for real-world aviation or navigation. No guarantee of current accuracy is given.